createdAt,value
2018-10-09T00:00:06.890Z,59.10
2018-10-09T00:02:36.091Z,59.10
2018-10-09T00:05:05.743Z,58.20
2018-10-09T00:07:35.052Z,58.20
2018-10-09T00:10:04.371Z,58.20
2018-10-09T00:12:33.606Z,58.10
2018-10-09T00:15:02.926Z,58.20
2018-10-09T00:17:32.119Z,58.10
2018-10-09T00:20:01.348Z,58.30
2018-10-09T00:22:30.622Z,58.80
2018-10-09T00:24:59.819Z,59.10
2018-10-09T00:27:29.060Z,58.60
2018-10-09T00:30:00.287Z,58.50
2018-10-09T00:32:29.500Z,59.20
2018-10-09T00:34:58.931Z,59.10
2018-10-09T00:37:28.724Z,58.90
2018-10-09T00:39:57.919Z,58.70
2018-10-09T00:42:27.125Z,60.30
2018-10-09T00:44:56.387Z,60.20
2018-10-09T00:47:25.607Z,59.50
2018-10-09T00:49:55.343Z,59.40
2018-10-09T00:52:24.639Z,59.20
2018-10-09T00:54:53.916Z,60.20
2018-10-09T00:57:23.175Z,59.40
2018-10-09T00:59:52.737Z,59.70
2018-10-09T01:02:21.935Z,60.30
2018-10-09T01:04:51.166Z,60.00
2018-10-09T01:07:20.415Z,59.80
2018-10-09T01:09:49.629Z,59.80
2018-10-09T01:12:18.809Z,61.70
2018-10-09T01:14:48.036Z,62.20
2018-10-09T01:17:17.244Z,63.00
2018-10-09T01:19:46.477Z,62.10
2018-10-09T01:22:16.158Z,61.20
2018-10-09T01:24:45.399Z,60.20
2018-10-09T01:27:14.595Z,62.50
2018-10-09T01:29:44.107Z,65.20
2018-10-09T01:32:13.323Z,62.50
2018-10-09T01:34:42.558Z,62.70
2018-10-09T01:37:11.782Z,61.60
2018-10-09T01:39:41.054Z,64.40
2018-10-09T01:42:10.416Z,62.70
2018-10-09T01:44:40.168Z,62.80
2018-10-09T01:47:09.415Z,63.40
2018-10-09T01:49:38.655Z,61.70
2018-10-09T01:52:08.270Z,62.20
2018-10-09T01:54:37.508Z,65.60
2018-10-09T01:57:07.095Z,65.90
2018-10-09T01:59:36.347Z,64.60
2018-10-09T02:02:05.744Z,66.10
2018-10-09T02:04:34.959Z,65.20
2018-10-09T02:07:04.786Z,63.80
2018-10-09T02:09:34.061Z,66.40
2018-10-09T02:12:03.288Z,65.60
2018-10-09T02:14:32.523Z,67.00
2018-10-09T02:17:01.744Z,66.30
2018-10-09T02:19:30.971Z,66.00
2018-10-09T02:22:00.187Z,64.40
2018-10-09T02:24:29.400Z,64.30
2018-10-09T02:26:58.639Z,64.90
2018-10-09T02:29:28.193Z,64.30
2018-10-09T02:31:57.403Z,64.60
2018-10-09T02:34:26.626Z,64.10
2018-10-09T02:36:55.864Z,63.60
2018-10-09T02:39:25.061Z,64.20
2018-10-09T02:41:54.271Z,65.00
2018-10-09T02:44:23.493Z,64.10
2018-10-09T02:46:52.703Z,63.90
2018-10-09T02:49:21.927Z,66.20
2018-10-09T02:51:51.537Z,66.20
2018-10-09T02:54:21.212Z,67.30
2018-10-09T02:56:50.410Z,67.20
2018-10-09T02:59:19.658Z,68.00
2018-10-09T03:01:49.116Z,67.20
2018-10-09T03:04:18.313Z,67.70
2018-10-09T03:06:47.588Z,66.90
2018-10-09T03:09:16.806Z,67.00
2018-10-09T03:11:45.998Z,69.30
2018-10-09T03:14:15.299Z,66.70
2018-10-09T03:16:44.487Z,69.40
2018-10-09T03:19:13.699Z,68.10
2018-10-09T03:21:42.943Z,67.10
2018-10-09T03:24:12.155Z,66.30
2018-10-09T03:26:41.443Z,65.90
2018-10-09T03:29:10.671Z,66.90
2018-10-09T03:31:39.941Z,66.10
2018-10-09T03:34:09.136Z,66.00
2018-10-09T03:36:38.703Z,65.50
2018-10-09T03:39:08.867Z,65.80
2018-10-09T03:41:38.213Z,65.80
2018-10-09T03:44:07.931Z,66.00
2018-10-09T03:46:37.312Z,66.00
2018-10-09T03:49:06.911Z,65.70
2018-10-09T03:51:36.187Z,65.90
2018-10-09T03:54:05.722Z,65.00
2018-10-09T03:56:35.703Z,65.60
2018-10-09T03:59:05.164Z,65.60
2018-10-09T04:01:34.399Z,65.70
2018-10-09T04:04:03.599Z,66.20
2018-10-09T04:06:32.859Z,65.90
2018-10-09T04:09:02.186Z,66.30
2018-10-09T04:11:31.339Z,67.00
2018-10-09T04:14:00.568Z,66.20
2018-10-09T04:16:29.766Z,67.00
2018-10-09T04:18:59.045Z,66.70
2018-10-09T04:21:28.689Z,66.50
2018-10-09T04:23:57.887Z,67.10
2018-10-09T04:26:27.135Z,68.10
2018-10-09T04:28:56.396Z,67.60
2018-10-09T04:31:25.935Z,68.20
2018-10-09T04:33:55.143Z,67.50
2018-10-09T04:36:24.484Z,67.60
2018-10-09T04:38:53.683Z,67.80
2018-10-09T04:41:22.890Z,67.50
2018-10-09T04:43:52.657Z,67.10
2018-10-09T04:46:21.940Z,67.40
2018-10-09T04:48:51.153Z,67.80
2018-10-09T04:51:20.390Z,67.80
2018-10-09T04:53:49.601Z,67.80
2018-10-09T04:56:18.815Z,69.30
2018-10-09T04:58:48.529Z,69.70
2018-10-09T05:01:17.743Z,68.40
2018-10-09T05:03:47.067Z,68.40
2018-10-09T05:06:16.905Z,67.90
2018-10-09T05:08:46.269Z,68.80
2018-10-09T05:11:15.479Z,69.30
2018-10-09T05:13:44.688Z,71.10
2018-10-09T05:16:13.903Z,69.00
2018-10-09T05:18:43.221Z,69.20
2018-10-09T05:21:12.427Z,69.10
2018-10-09T05:23:41.636Z,69.10
2018-10-09T05:26:10.888Z,69.00
2018-10-09T05:28:40.644Z,72.60
2018-10-09T05:31:09.988Z,69.30
2018-10-09T05:33:39.192Z,69.30
2018-10-09T05:36:08.444Z,68.60
2018-10-09T05:38:37.663Z,68.60
2018-10-09T05:41:07.411Z,68.40
2018-10-09T05:43:36.847Z,69.10
2018-10-09T05:46:06.395Z,69.30
2018-10-09T05:48:35.655Z,69.30
2018-10-09T05:51:05.247Z,69.10
2018-10-09T05:53:34.731Z,70.50
2018-10-09T05:56:04.027Z,71.00
2018-10-09T05:58:33.293Z,70.60
2018-10-09T06:01:02.823Z,71.70
2018-10-09T06:03:32.356Z,72.00
2018-10-09T06:06:01.681Z,71.90
2018-10-09T06:08:30.856Z,71.20
2018-10-09T06:11:00.088Z,72.80
2018-10-09T06:13:29.692Z,73.10
2018-10-09T06:15:59.021Z,74.00
2018-10-09T06:18:28.227Z,72.90
2018-10-09T06:20:57.451Z,72.60
2018-10-09T06:23:26.685Z,76.40
2018-10-09T06:25:55.951Z,73.90
2018-10-09T06:28:25.209Z,74.40
2018-10-09T06:30:54.759Z,74.30
2018-10-09T06:33:24.040Z,75.20
2018-10-09T06:35:53.704Z,75.80
2018-10-09T06:38:23.016Z,76.30
2018-10-09T06:40:52.239Z,75.20
2018-10-09T06:43:21.475Z,76.10
2018-10-09T06:45:50.703Z,76.60
2018-10-09T06:48:19.972Z,75.40
2018-10-09T06:50:49.216Z,74.70
2018-10-09T06:53:18.498Z,74.80
2018-10-09T06:55:47.810Z,74.60
2018-10-09T06:58:17.306Z,75.10
2018-10-09T07:00:46.655Z,75.20
2018-10-09T07:03:16.162Z,74.40
2018-10-09T07:05:45.501Z,74.00
2018-10-09T07:08:14.731Z,74.10
2018-10-09T07:10:43.952Z,74.20
2018-10-09T07:13:13.187Z,75.40
2018-10-09T07:15:42.417Z,74.10
2018-10-09T07:18:11.764Z,74.60
2018-10-09T07:20:41.324Z,75.00
2018-10-09T07:23:10.529Z,74.70
2018-10-09T07:25:39.895Z,74.70
2018-10-09T07:28:09.301Z,74.60
2018-10-09T07:30:38.638Z,74.30
2018-10-09T07:33:07.827Z,74.50
2018-10-09T07:35:37.061Z,73.70
2018-10-09T07:38:06.295Z,74.00
2018-10-09T07:40:35.685Z,73.60
2018-10-09T07:43:05.333Z,73.80
2018-10-09T07:45:34.559Z,73.80
2018-10-09T07:48:03.789Z,73.80
2018-10-09T07:50:33.055Z,73.70
2018-10-09T07:53:02.613Z,73.60
2018-10-09T07:55:31.944Z,73.20
2018-10-09T07:58:01.166Z,72.60
2018-10-09T08:00:30.427Z,72.20
2018-10-09T08:02:59.623Z,72.40
2018-10-09T08:05:29.955Z,72.40
2018-10-09T08:07:59.166Z,72.40
2018-10-09T08:10:28.372Z,73.20
2018-10-09T08:12:57.607Z,72.30
2018-10-09T08:15:26.787Z,72.60
2018-10-09T08:17:56.003Z,72.70
2018-10-09T08:20:25.303Z,73.30
2018-10-09T08:22:54.572Z,73.30
2018-10-09T08:25:23.708Z,73.60
2018-10-09T08:27:53.378Z,73.10
2018-10-09T08:30:22.788Z,73.30
2018-10-09T08:32:51.983Z,73.80
2018-10-09T08:35:21.266Z,72.90
2018-10-09T08:37:50.835Z,72.80
2018-10-09T08:40:20.098Z,72.90
2018-10-09T08:42:49.771Z,72.00
2018-10-09T08:45:19.000Z,72.00
2018-10-09T08:47:48.206Z,72.30
2018-10-09T08:50:18.599Z,72.80
2018-10-09T08:52:48.016Z,72.80
2018-10-09T08:55:17.267Z,72.70
2018-10-09T08:57:46.500Z,73.10
2018-10-09T09:00:15.729Z,74.10
2018-10-09T09:02:44.927Z,73.40
2018-10-09T09:05:14.198Z,74.10
2018-10-09T09:07:43.805Z,73.90
2018-10-09T09:10:13.041Z,73.70
2018-10-09T09:12:42.611Z,73.20
2018-10-09T09:15:11.840Z,72.20
2018-10-09T09:17:41.043Z,72.00
2018-10-09T09:20:10.306Z,71.70
2018-10-09T09:22:39.595Z,73.20
2018-10-09T09:25:08.928Z,72.60
2018-10-09T09:27:38.302Z,72.30
2018-10-09T09:30:08.218Z,72.20
2018-10-09T09:32:37.467Z,71.60
2018-10-09T09:35:06.939Z,71.40
2018-10-09T09:37:36.184Z,71.70
2018-10-09T09:40:05.443Z,71.10
2018-10-09T09:42:34.751Z,70.80
2018-10-09T09:45:04.073Z,70.80
2018-10-09T09:47:33.252Z,70.50
2018-10-09T09:50:02.539Z,69.90
2018-10-09T09:52:31.808Z,69.60
2018-10-09T09:55:01.007Z,69.80
2018-10-09T09:57:30.947Z,70.70
2018-10-09T10:00:00.176Z,71.00
2018-10-09T10:02:29.410Z,71.10
2018-10-09T10:04:58.636Z,70.40
2018-10-09T10:07:27.862Z,70.50
2018-10-09T10:09:57.569Z,71.80
2018-10-09T10:12:26.811Z,71.50
2018-10-09T10:14:56.037Z,71.10
2018-10-09T10:17:25.241Z,67.20
2018-10-09T10:19:54.959Z,69.70
2018-10-09T10:22:24.224Z,68.40
2018-10-09T10:24:53.447Z,66.60
2018-10-09T10:27:22.679Z,68.40
2018-10-09T10:29:52.155Z,68.80
2018-10-09T10:32:21.550Z,68.00
2018-10-09T10:34:50.859Z,66.00
2018-10-09T10:37:20.121Z,62.00
2018-10-09T10:39:49.311Z,60.70
2018-10-09T10:42:18.993Z,62.10
2018-10-09T10:44:48.239Z,60.10
2018-10-09T10:47:17.467Z,61.50
2018-10-09T10:49:46.698Z,60.70
2018-10-09T10:52:15.911Z,59.00
2018-10-09T10:54:45.141Z,58.30
2018-10-09T10:57:14.379Z,60.80
2018-10-09T10:59:43.607Z,59.80
2018-10-09T11:02:12.824Z,60.20
2018-10-09T11:04:42.380Z,59.80
2018-10-09T11:07:11.791Z,59.10
2018-10-09T11:09:41.088Z,60.10
2018-10-09T11:12:10.742Z,58.30
2018-10-09T11:14:40.263Z,57.80
2018-10-09T11:17:09.453Z,57.50
2018-10-09T11:19:38.899Z,57.60
2018-10-09T11:22:08.183Z,56.00
2018-10-09T11:24:37.379Z,56.00
2018-10-09T11:27:07.552Z,56.50
2018-10-09T11:29:40.596Z,56.70
2018-10-09T11:32:11.319Z,57.30
2018-10-09T11:34:40.560Z,57.10
2018-10-09T11:37:10.172Z,57.20
2018-10-09T11:39:39.449Z,56.90
2018-10-09T11:42:08.683Z,57.10
2018-10-09T11:44:38.073Z,55.30
2018-10-09T11:47:07.555Z,54.30
2018-10-09T11:49:36.837Z,54.00
2018-10-09T11:52:06.097Z,53.90
2018-10-09T11:54:35.442Z,53.80
2018-10-09T11:57:04.643Z,53.40
2018-10-09T11:59:33.879Z,53.20
2018-10-09T12:02:03.159Z,54.60
2018-10-09T12:04:32.446Z,54.00
2018-10-09T12:07:01.695Z,53.60
2018-10-09T12:09:31.164Z,52.30
2018-10-09T12:12:00.391Z,53.20
2018-10-09T12:14:29.932Z,51.60
2018-10-09T12:16:59.194Z,53.80
2018-10-09T12:19:28.459Z,52.70
2018-10-09T12:21:57.691Z,53.20
2018-10-09T12:24:26.935Z,51.70
2018-10-09T12:26:56.157Z,53.20
2018-10-09T12:29:25.391Z,51.90
2018-10-09T12:31:54.681Z,52.80
2018-10-09T12:34:23.926Z,50.60
2018-10-09T12:36:53.211Z,50.70
2018-10-09T12:39:22.415Z,50.20
2018-10-09T12:41:51.955Z,50.40
2018-10-09T12:44:21.225Z,50.90
2018-10-09T12:46:50.409Z,49.90
2018-10-09T12:49:19.659Z,49.10
2018-10-09T12:51:48.875Z,48.70
2018-10-09T12:54:18.394Z,49.90
2018-10-09T12:56:47.611Z,50.40
2018-10-09T12:59:16.803Z,51.00
2018-10-09T13:01:46.040Z,51.00
2018-10-09T13:04:15.270Z,49.90
2018-10-09T13:06:44.663Z,49.60
2018-10-09T13:09:14.591Z,50.00
2018-10-09T13:11:45.118Z,49.10
2018-10-09T13:14:14.341Z,49.20
2018-10-09T13:16:44.235Z,49.00
2018-10-09T13:19:13.451Z,49.70
2018-10-09T13:21:42.970Z,50.50
2018-10-09T13:24:12.136Z,49.90
2018-10-09T13:26:41.376Z,50.20
2018-10-09T13:29:10.555Z,50.20
2018-10-09T13:31:39.807Z,49.90
2018-10-09T13:34:09.187Z,50.50
2018-10-09T13:36:38.263Z,51.50
2018-10-09T13:39:08.564Z,49.00
2018-10-09T13:41:37.851Z,50.20
2018-10-09T13:44:07.658Z,50.00
2018-10-09T13:46:38.213Z,47.50
2018-10-09T13:49:08.876Z,48.00
2018-10-09T13:51:38.139Z,49.00
2018-10-09T13:54:07.440Z,48.50
2018-10-09T13:56:36.777Z,47.50
2018-10-09T13:59:06.452Z,47.10
2018-10-09T14:01:35.975Z,47.90
2018-10-09T14:04:05.190Z,45.20
2018-10-09T14:06:34.420Z,46.20
2018-10-09T14:09:04.656Z,42.70
2018-10-09T14:11:34.160Z,41.90
2018-10-09T14:14:03.560Z,42.70
2018-10-09T14:16:32.809Z,43.40
2018-10-09T14:19:02.380Z,41.30
2018-10-09T14:21:31.606Z,39.10
2018-10-09T14:24:01.079Z,41.20
2018-10-09T14:26:30.384Z,40.00
2018-10-09T14:28:59.687Z,41.20
2018-10-09T14:31:28.919Z,41.50
2018-10-09T14:33:58.421Z,40.00
2018-10-09T14:36:27.775Z,40.30
2018-10-09T14:38:56.999Z,40.50
2018-10-09T14:41:26.396Z,39.70
2018-10-09T14:43:55.668Z,40.60
2018-10-09T14:46:25.199Z,38.90
2018-10-09T14:48:54.415Z,39.40
2018-10-09T14:51:23.621Z,39.30
2018-10-09T14:53:52.873Z,38.40
2018-10-09T14:56:22.144Z,38.20
2018-10-09T14:58:51.319Z,38.60
2018-10-09T15:01:20.625Z,39.70
2018-10-09T15:03:49.904Z,37.80
2018-10-09T15:06:19.124Z,37.30
2018-10-09T15:08:48.950Z,37.60
2018-10-09T15:11:18.139Z,38.90
2018-10-09T15:13:47.630Z,38.80
2018-10-09T15:16:16.911Z,38.00
2018-10-09T15:18:46.119Z,38.70
2018-10-09T15:21:15.830Z,37.70
2018-10-09T15:23:45.147Z,37.60
2018-10-09T15:26:14.452Z,37.40
2018-10-09T15:28:43.655Z,37.60
2018-10-09T15:31:13.239Z,37.50
2018-10-09T15:33:42.456Z,37.90
2018-10-09T15:36:11.691Z,38.30
2018-10-09T15:38:42.080Z,38.50
2018-10-09T15:41:11.547Z,38.70
2018-10-09T15:43:40.700Z,38.10
2018-10-09T15:46:10.027Z,39.10
2018-10-09T15:48:39.219Z,39.40
2018-10-09T15:51:08.519Z,40.70
2018-10-09T15:53:37.963Z,41.60
2018-10-09T15:56:07.216Z,41.70
2018-10-09T15:58:36.431Z,42.00
2018-10-09T16:01:05.931Z,42.60
2018-10-09T16:03:35.165Z,43.00
2018-10-09T16:06:04.380Z,43.30
2018-10-09T16:08:33.620Z,43.40
2018-10-09T16:11:02.819Z,44.10
2018-10-09T16:13:32.029Z,43.80
2018-10-09T16:16:01.576Z,43.90
2018-10-09T16:18:31.589Z,43.90
2018-10-09T16:21:02.090Z,44.20
2018-10-09T16:23:31.823Z,44.80
2018-10-09T16:26:01.117Z,44.30
2018-10-09T16:28:30.672Z,44.80
2018-10-09T16:31:00.141Z,44.90
2018-10-09T16:33:29.332Z,44.80
2018-10-09T16:35:58.904Z,44.70
2018-10-09T16:38:28.438Z,44.80
2018-10-09T16:40:57.779Z,44.90
2018-10-09T16:43:31.444Z,45.10
2018-10-09T16:46:00.924Z,45.40
2018-10-09T16:48:30.135Z,45.60
2018-10-09T16:50:59.592Z,45.90
2018-10-09T16:53:29.774Z,46.90
2018-10-09T16:56:03.316Z,46.10
2018-10-09T16:58:33.188Z,47.10
2018-10-09T17:01:02.609Z,47.10
2018-10-09T17:03:31.953Z,46.50
2018-10-09T17:06:02.458Z,47.50
2018-10-09T17:08:31.887Z,47.80
2018-10-09T17:11:01.228Z,47.50
2018-10-09T17:13:30.424Z,48.50
2018-10-09T17:16:00.076Z,48.50
2018-10-09T17:18:29.381Z,50.10
2018-10-09T17:20:58.620Z,48.70
2018-10-09T17:23:29.108Z,48.10
2018-10-09T17:25:58.371Z,48.40
2018-10-09T17:28:27.694Z,48.60
2018-10-09T17:30:56.959Z,48.90
2018-10-09T17:33:27.557Z,48.80
2018-10-09T17:35:56.734Z,49.40
2018-10-09T17:38:26.104Z,49.20
2018-10-09T17:40:55.516Z,49.30
2018-10-09T17:43:25.076Z,49.10
2018-10-09T17:45:54.666Z,49.00
2018-10-09T17:48:23.961Z,49.70
2018-10-09T17:50:54.443Z,50.70
2018-10-09T17:53:24.980Z,50.20
2018-10-09T17:55:54.179Z,49.90
2018-10-09T17:58:23.593Z,50.50
2018-10-09T18:00:52.905Z,50.20
2018-10-09T18:03:22.252Z,51.80
2018-10-09T18:05:51.485Z,50.60
2018-10-09T18:08:20.783Z,50.50
2018-10-09T18:10:51.332Z,50.40
2018-10-09T18:13:20.723Z,50.90
2018-10-09T18:15:50.169Z,50.80
2018-10-09T18:18:19.532Z,51.70
2018-10-09T18:20:48.743Z,51.00
2018-10-09T18:23:18.657Z,51.90
2018-10-09T18:25:48.047Z,51.30
2018-10-09T18:28:18.523Z,51.60
2018-10-09T18:30:47.775Z,51.90
2018-10-09T18:33:17.335Z,51.40
2018-10-09T18:35:46.395Z,52.30
2018-10-09T18:38:15.623Z,52.10
2018-10-09T18:40:44.995Z,52.00
2018-10-09T18:43:14.579Z,52.90
2018-10-09T18:45:44.417Z,52.00
2018-10-09T18:48:13.868Z,54.00
2018-10-09T18:50:45.351Z,52.90
2018-10-09T18:53:14.887Z,53.70
2018-10-09T18:55:46.447Z,52.80
2018-10-09T18:58:15.674Z,53.10
2018-10-09T19:00:44.934Z,54.30
2018-10-09T19:03:16.563Z,53.10
2018-10-09T19:05:46.112Z,54.30
2018-10-09T19:08:15.330Z,53.60
2018-10-09T19:10:46.863Z,53.30
2018-10-09T19:13:24.650Z,53.40
2018-10-09T19:15:54.028Z,53.40
2018-10-09T19:18:23.339Z,54.30
2018-10-09T19:20:52.605Z,53.80
2018-10-09T19:23:22.165Z,54.00
2018-10-09T19:25:52.168Z,54.30
2018-10-09T19:28:21.423Z,53.70
2018-10-09T19:30:50.659Z,53.60
2018-10-09T19:33:20.038Z,54.30
2018-10-09T19:35:49.359Z,55.10
2018-10-09T19:38:18.608Z,54.70
2018-10-09T19:40:47.843Z,54.30
2018-10-09T19:43:17.141Z,53.90
2018-10-09T19:45:46.776Z,54.00
2018-10-09T19:48:16.011Z,54.50
2018-10-09T19:50:45.273Z,54.70
2018-10-09T19:53:14.466Z,54.50
2018-10-09T19:55:43.713Z,54.60
2018-10-09T19:58:12.931Z,54.70
2018-10-09T20:00:42.198Z,54.50
2018-10-09T20:03:11.407Z,55.00
2018-10-09T20:05:40.852Z,55.50
2018-10-09T20:08:10.513Z,54.90
2018-10-09T20:10:39.870Z,55.60
2018-10-09T20:13:09.108Z,55.70
2018-10-09T20:15:38.551Z,55.20
2018-10-09T20:18:08.185Z,55.30
2018-10-09T20:20:37.404Z,55.60
2018-10-09T20:23:06.715Z,56.10
2018-10-09T20:25:35.967Z,56.00
2018-10-09T20:28:05.811Z,56.30
2018-10-09T20:30:35.310Z,55.80
2018-10-09T20:33:04.860Z,55.60
2018-10-09T20:35:34.156Z,55.30
2018-10-09T20:38:03.383Z,55.60
2018-10-09T20:40:32.588Z,55.50
2018-10-09T20:43:02.016Z,56.10
2018-10-09T20:45:31.604Z,56.10
2018-10-09T20:48:00.857Z,56.00
2018-10-09T20:50:30.071Z,57.10
2018-10-09T20:53:00.020Z,56.60
2018-10-09T20:55:29.207Z,56.80
2018-10-09T20:57:58.643Z,56.90
2018-10-09T21:00:27.898Z,56.90
2018-10-09T21:02:57.111Z,56.30
2018-10-09T21:05:26.324Z,56.80
2018-10-09T21:07:55.763Z,56.70
2018-10-09T21:10:25.032Z,56.60
2018-10-09T21:12:54.255Z,57.00
2018-10-09T21:15:23.771Z,56.80
2018-10-09T21:17:53.073Z,57.40
2018-10-09T21:20:22.227Z,57.20
2018-10-09T21:22:52.106Z,57.30
2018-10-09T21:25:21.292Z,57.10
2018-10-09T21:27:50.704Z,57.10
2018-10-09T21:30:20.367Z,57.10
2018-10-09T21:32:49.647Z,57.10
2018-10-09T21:35:18.880Z,57.10
2018-10-09T21:37:48.187Z,57.00
2018-10-09T21:40:17.396Z,57.50
2018-10-09T21:42:46.591Z,57.90
2018-10-09T21:45:15.845Z,57.30
2018-10-09T21:47:50.573Z,57.10
2018-10-09T21:50:19.803Z,58.60
2018-10-09T21:52:49.068Z,59.00
2018-10-09T21:55:18.323Z,58.20
2018-10-09T21:57:47.795Z,57.90
2018-10-09T22:00:16.971Z,57.80
2018-10-09T22:02:46.177Z,57.80
2018-10-09T22:05:15.476Z,60.90
2018-10-09T22:07:44.984Z,59.70
2018-10-09T22:10:14.228Z,59.00
2018-10-09T22:12:43.512Z,58.60
2018-10-09T22:15:12.727Z,58.20
2018-10-09T22:17:41.972Z,59.00
2018-10-09T22:20:11.431Z,59.50
2018-10-09T22:22:40.647Z,59.10
2018-10-09T22:25:09.860Z,58.50
2018-10-09T22:27:39.116Z,58.40
2018-10-09T22:30:08.360Z,59.00
2018-10-09T22:32:37.959Z,58.80
2018-10-09T22:35:07.196Z,59.20
2018-10-09T22:37:36.447Z,58.80
2018-10-09T22:40:05.713Z,59.00
2018-10-09T22:42:35.131Z,60.60
2018-10-09T22:45:04.384Z,60.30
2018-10-09T22:47:33.592Z,59.50
2018-10-09T22:50:02.823Z,59.30
2018-10-09T22:52:32.043Z,59.30
2018-10-09T22:55:01.312Z,59.80
2018-10-09T22:57:30.532Z,59.80
2018-10-09T22:59:59.773Z,60.10
2018-10-09T23:02:28.991Z,60.00
2018-10-09T23:04:58.531Z,60.00
2018-10-09T23:07:27.907Z,59.70
2018-10-09T23:09:57.205Z,59.80
2018-10-09T23:12:26.439Z,59.80
2018-10-09T23:14:55.641Z,59.60
2018-10-09T23:17:24.850Z,59.60
2018-10-09T23:19:54.100Z,60.10
2018-10-09T23:22:23.286Z,59.40
2018-10-09T23:24:52.514Z,61.00
2018-10-09T23:27:22.259Z,61.10
2018-10-09T23:29:51.471Z,61.00
2018-10-09T23:32:20.732Z,62.40
2018-10-09T23:34:50.277Z,61.00
2018-10-09T23:37:19.646Z,60.10
2018-10-09T23:39:48.909Z,60.80
2018-10-09T23:42:18.201Z,60.50
2018-10-09T23:44:47.440Z,61.00
2018-10-09T23:47:16.664Z,61.40
2018-10-09T23:49:46.275Z,60.60
2018-10-09T23:52:15.474Z,60.70
2018-10-09T23:54:44.751Z,61.70
2018-10-09T23:57:14.007Z,61.70
2018-10-09T23:59:43.220Z,61.10
